sensor_id;sensor_type;location;lat;lon;timestamp;temperature;humidity
49441;DHT22;35317;51.978;6.296;2023-06-14T00:03:46;17.20;56.70
49441;DHT22;35317;51.978;6.296;2023-06-14T00:08:47;17.10;56.80
49441;DHT22;35317;51.978;6.296;2023-06-14T00:13:48;17.10;56.80
49441;DHT22;35317;51.978;6.296;2023-06-14T00:18:49;17.10;56.90
49441;DHT22;35317;51.978;6.296;2023-06-14T00:23:52;17.00;57.20
49441;DHT22;35317;51.978;6.296;2023-06-14T00:28:53;16.90;57.20
49441;DHT22;35317;51.978;6.296;2023-06-14T00:33:55;16.80;57.50
49441;DHT22;35317;51.978;6.296;2023-06-14T00:38:55;16.70;57.70
49441;DHT22;35317;51.978;6.296;2023-06-14T00:43:56;16.70;58.60
49441;DHT22;35317;51.978;6.296;2023-06-14T00:48:58;16.60;58.70
49441;DHT22;35317;51.978;6.296;2023-06-14T00:54:00;16.50;58.60
49441;DHT22;35317;51.978;6.296;2023-06-14T00:59:02;16.40;58.60
49441;DHT22;35317;51.978;6.296;2023-06-14T01:04:03;16.30;58.80
49441;DHT22;35317;51.978;6.296;2023-06-14T01:09:27;16.30;59.20
49441;DHT22;35317;51.978;6.296;2023-06-14T01:14:31;16.20;60.10
49441;DHT22;35317;51.978;6.296;2023-06-14T01:19:33;16.10;59.70
49441;DHT22;35317;51.978;6.296;2023-06-14T01:24:35;16.10;59.80
49441;DHT22;35317;51.978;6.296;2023-06-14T01:29:36;16.00;60.00
49441;DHT22;35317;51.978;6.296;2023-06-14T01:34:37;16.00;60.10
49441;DHT22;35317;51.978;6.296;2023-06-14T01:39:38;16.00;60.40
49441;DHT22;35317;51.978;6.296;2023-06-14T01:44:41;16.00;60.40
49441;DHT22;35317;51.978;6.296;2023-06-14T01:49:42;16.00;60.60
49441;DHT22;35317;51.978;6.296;2023-06-14T01:54:43;16.00;60.60
49441;DHT22;35317;51.978;6.296;2023-06-14T01:59:44;16.00;61.00
49441;DHT22;35317;51.978;6.296;2023-06-14T02:04:48;16.00;61.20
49441;DHT22;35317;51.978;6.296;2023-06-14T02:09:49;15.90;61.20
49441;DHT22;35317;51.978;6.296;2023-06-14T02:14:50;15.90;61.90
49441;DHT22;35317;51.978;6.296;2023-06-14T02:19:51;15.90;61.50
49441;DHT22;35317;51.978;6.296;2023-06-14T02:24:52;15.90;61.80
49441;DHT22;35317;51.978;6.296;2023-06-14T02:29:53;15.80;61.80
49441;DHT22;35317;51.978;6.296;2023-06-14T02:34:54;15.70;62.30
49441;DHT22;35317;51.978;6.296;2023-06-14T02:39:56;15.70;62.40
49441;DHT22;35317;51.978;6.296;2023-06-14T02:44:57;15.70;62.40
49441;DHT22;35317;51.978;6.296;2023-06-14T02:49:57;15.60;62.60
49441;DHT22;35317;51.978;6.296;2023-06-14T02:54:58;15.60;62.60
49441;DHT22;35317;51.978;6.296;2023-06-14T02:59:59;15.60;62.60
49441;DHT22;35317;51.978;6.296;2023-06-14T03:05:01;15.60;62.90
49441;DHT22;35317;51.978;6.296;2023-06-14T03:10:03;15.60;63.00
49441;DHT22;35317;51.978;6.296;2023-06-14T03:15:04;15.60;63.10
49441;DHT22;35317;51.978;6.296;2023-06-14T03:20:06;15.60;63.20
49441;DHT22;35317;51.978;6.296;2023-06-14T03:25:08;15.60;63.30
49441;DHT22;35317;51.978;6.296;2023-06-14T03:30:10;15.70;63.20
49441;DHT22;35317;51.978;6.296;2023-06-14T03:35:11;15.70;63.30
49441;DHT22;35317;51.978;6.296;2023-06-14T03:40:18;15.80;63.40
49441;DHT22;35317;51.978;6.296;2023-06-14T03:45:20;15.80;63.30
49441;DHT22;35317;51.978;6.296;2023-06-14T03:50:21;15.90;63.30
49441;DHT22;35317;51.978;6.296;2023-06-14T03:55:22;16.00;63.20
49441;DHT22;35317;51.978;6.296;2023-06-14T04:00:25;16.10;63.50
49441;DHT22;35317;51.978;6.296;2023-06-14T04:05:26;16.10;63.40
49441;DHT22;35317;51.978;6.296;2023-06-14T04:10:27;16.20;63.30
49441;DHT22;35317;51.978;6.296;2023-06-14T04:15:28;16.20;63.40
49441;DHT22;35317;51.978;6.296;2023-06-14T04:20:29;16.20;63.40
49441;DHT22;35317;51.978;6.296;2023-06-14T04:25:30;16.20;63.30
49441;DHT22;35317;51.978;6.296;2023-06-14T04:30:32;16.30;63.50
49441;DHT22;35317;51.978;6.296;2023-06-14T04:35:33;16.30;63.60
49441;DHT22;35317;51.978;6.296;2023-06-14T04:40:36;16.40;63.50
49441;DHT22;35317;51.978;6.296;2023-06-14T04:45:43;16.40;63.70
49441;DHT22;35317;51.978;6.296;2023-06-14T04:50:46;16.50;64.00
49441;DHT22;35317;51.978;6.296;2023-06-14T04:55:47;16.60;64.00
49441;DHT22;35317;51.978;6.296;2023-06-14T05:00:48;16.70;63.90
49441;DHT22;35317;51.978;6.296;2023-06-14T05:05:50;16.70;63.70
49441;DHT22;35317;51.978;6.296;2023-06-14T05:10:51;16.80;63.70
49441;DHT22;35317;51.978;6.296;2023-06-14T05:15:52;17.00;63.80
49441;DHT22;35317;51.978;6.296;2023-06-14T05:20:53;17.00;63.70
49441;DHT22;35317;51.978;6.296;2023-06-14T05:25:54;17.10;63.70
49441;DHT22;35317;51.978;6.296;2023-06-14T05:30:55;17.20;63.60
49441;DHT22;35317;51.978;6.296;2023-06-14T05:35:56;17.40;63.70
49441;DHT22;35317;51.978;6.296;2023-06-14T05:40:57;17.50;63.70
49441;DHT22;35317;51.978;6.296;2023-06-14T05:45:57;17.60;63.60
49441;DHT22;35317;51.978;6.296;2023-06-14T05:50:59;17.80;63.50
49441;DHT22;35317;51.978;6.296;2023-06-14T05:56:00;17.90;63.40
49441;DHT22;35317;51.978;6.296;2023-06-14T06:01:01;18.00;63.30
49441;DHT22;35317;51.978;6.296;2023-06-14T06:06:02;18.20;63.10
49441;DHT22;35317;51.978;6.296;2023-06-14T06:11:03;18.40;62.80
49441;DHT22;35317;51.978;6.296;2023-06-14T06:16:04;18.60;62.50
49441;DHT22;35317;51.978;6.296;2023-06-14T06:21:06;18.70;62.20
49441;DHT22;35317;51.978;6.296;2023-06-14T06:26:06;19.00;61.80
49441;DHT22;35317;51.978;6.296;2023-06-14T06:31:07;19.10;61.20
49441;DHT22;35317;51.978;6.296;2023-06-14T06:36:08;19.30;61.10
49441;DHT22;35317;51.978;6.296;2023-06-14T06:41:09;19.50;60.50
49441;DHT22;35317;51.978;6.296;2023-06-14T06:46:10;19.70;60.20
49441;DHT22;35317;51.978;6.296;2023-06-14T06:51:10;19.80;59.60
49441;DHT22;35317;51.978;6.296;2023-06-14T06:56:13;20.00;59.30
49441;DHT22;35317;51.978;6.296;2023-06-14T07:01:14;20.20;59.00
49441;DHT22;35317;51.978;6.296;2023-06-14T07:06:15;20.40;58.20
49441;DHT22;35317;51.978;6.296;2023-06-14T07:11:19;20.60;57.60
49441;DHT22;35317;51.978;6.296;2023-06-14T07:16:20;20.80;57.40
49441;DHT22;35317;51.978;6.296;2023-06-14T07:21:22;21.10;56.30
49441;DHT22;35317;51.978;6.296;2023-06-14T07:26:23;21.30;55.50
49441;DHT22;35317;51.978;6.296;2023-06-14T07:31:23;21.50;55.60
49441;DHT22;35317;51.978;6.296;2023-06-14T07:36:24;21.80;55.20
49441;DHT22;35317;51.978;6.296;2023-06-14T07:41:25;22.00;54.50
49441;DHT22;35317;51.978;6.296;2023-06-14T07:46:26;22.20;53.70
49441;DHT22;35317;51.978;6.296;2023-06-14T07:51:26;22.30;53.40
49441;DHT22;35317;51.978;6.296;2023-06-14T07:56:27;22.40;53.00
49441;DHT22;35317;51.978;6.296;2023-06-14T08:01:28;22.50;52.40
49441;DHT22;35317;51.978;6.296;2023-06-14T08:06:29;22.60;51.30
49441;DHT22;35317;51.978;6.296;2023-06-14T08:11:31;22.60;50.60
49441;DHT22;35317;51.978;6.296;2023-06-14T08:16:32;22.70;50.20
49441;DHT22;35317;51.978;6.296;2023-06-14T08:21:32;22.80;50.50
49441;DHT22;35317;51.978;6.296;2023-06-14T08:26:33;23.00;50.50
49441;DHT22;35317;51.978;6.296;2023-06-14T08:31:34;23.20;49.70
49441;DHT22;35317;51.978;6.296;2023-06-14T08:36:35;23.20;49.40
49441;DHT22;35317;51.978;6.296;2023-06-14T08:41:37;23.30;49.40
49441;DHT22;35317;51.978;6.296;2023-06-14T08:46:38;23.40;49.30
49441;DHT22;35317;51.978;6.296;2023-06-14T08:51:39;23.60;49.30
49441;DHT22;35317;51.978;6.296;2023-06-14T08:56:41;23.70;48.70
49441;DHT22;35317;51.978;6.296;2023-06-14T09:01:42;23.80;48.30
49441;DHT22;35317;51.978;6.296;2023-06-14T09:06:43;23.90;48.50
49441;DHT22;35317;51.978;6.296;2023-06-14T09:11:44;24.10;47.90
49441;DHT22;35317;51.978;6.296;2023-06-14T09:16:45;24.20;47.40
49441;DHT22;35317;51.978;6.296;2023-06-14T09:21:47;24.30;47.30
49441;DHT22;35317;51.978;6.296;2023-06-14T09:26:48;24.50;47.30
49441;DHT22;35317;51.978;6.296;2023-06-14T09:31:51;24.80;46.70
49441;DHT22;35317;51.978;6.296;2023-06-14T09:36:52;24.90;46.30
49441;DHT22;35317;51.978;6.296;2023-06-14T09:41:52;25.00;45.80
49441;DHT22;35317;51.978;6.296;2023-06-14T09:46:53;25.10;45.70
49441;DHT22;35317;51.978;6.296;2023-06-14T09:51:57;25.30;45.40
49441;DHT22;35317;51.978;6.296;2023-06-14T09:56:59;25.40;44.40
49441;DHT22;35317;51.978;6.296;2023-06-14T10:02:07;25.40;43.80
49441;DHT22;35317;51.978;6.296;2023-06-14T10:07:19;25.50;43.40
49441;DHT22;35317;51.978;6.296;2023-06-14T10:12:21;25.60;43.40
49441;DHT22;35317;51.978;6.296;2023-06-14T10:22:44;26.10;43.40
49441;DHT22;35317;51.978;6.296;2023-06-14T10:33:17;26.30;41.80
49441;DHT22;35317;51.978;6.296;2023-06-14T10:38:30;26.10;41.50
49441;DHT22;35317;51.978;6.296;2023-06-14T10:43:32;26.10;41.60
49441;DHT22;35317;51.978;6.296;2023-06-14T10:48:34;26.20;41.50
49441;DHT22;35317;51.978;6.296;2023-06-14T10:53:41;26.30;41.40
49441;DHT22;35317;51.978;6.296;2023-06-14T10:58:43;26.20;41.40
49441;DHT22;35317;51.978;6.296;2023-06-14T11:03:50;26.00;41.60
49441;DHT22;35317;51.978;6.296;2023-06-14T11:09:12;26.10;41.90
49441;DHT22;35317;51.978;6.296;2023-06-14T11:14:19;26.30;41.60
49441;DHT22;35317;51.978;6.296;2023-06-14T11:19:21;26.30;41.80
49441;DHT22;35317;51.978;6.296;2023-06-14T11:24:22;26.30;42.00
49441;DHT22;35317;51.978;6.296;2023-06-14T11:29:23;26.40;41.90
49441;DHT22;35317;51.978;6.296;2023-06-14T11:34:24;26.50;41.90
49441;DHT22;35317;51.978;6.296;2023-06-14T11:39:25;26.50;42.10
49441;DHT22;35317;51.978;6.296;2023-06-14T11:44:27;26.50;42.40
49441;DHT22;35317;51.978;6.296;2023-06-14T11:49:28;26.60;42.60
49441;DHT22;35317;51.978;6.296;2023-06-14T11:54:29;26.90;42.60
49441;DHT22;35317;51.978;6.296;2023-06-14T11:59:30;27.30;42.30
49441;DHT22;35317;51.978;6.296;2023-06-14T12:04:31;27.30;41.00
49441;DHT22;35317;51.978;6.296;2023-06-14T12:09:33;27.20;41.00
49441;DHT22;35317;51.978;6.296;2023-06-14T12:14:33;27.20;40.90
49441;DHT22;35317;51.978;6.296;2023-06-14T12:19:42;27.20;40.90
49441;DHT22;35317;51.978;6.296;2023-06-14T12:24:44;27.40;40.70
49441;DHT22;35317;51.978;6.296;2023-06-14T12:29:46;27.40;40.70
49441;DHT22;35317;51.978;6.296;2023-06-14T12:34:47;27.30;40.70
49441;DHT22;35317;51.978;6.296;2023-06-14T12:39:48;27.50;40.20
49441;DHT22;35317;51.978;6.296;2023-06-14T12:44:48;27.80;40.20
49441;DHT22;35317;51.978;6.296;2023-06-14T12:49:49;28.10;39.70
49441;DHT22;35317;51.978;6.296;2023-06-14T12:54:50;28.00;39.10
49441;DHT22;35317;51.978;6.296;2023-06-14T12:59:51;28.00;39.40
49441;DHT22;35317;51.978;6.296;2023-06-14T13:04:53;28.10;39.20
49441;DHT22;35317;51.978;6.296;2023-06-14T13:09:54;28.30;39.10
49441;DHT22;35317;51.978;6.296;2023-06-14T13:14:55;28.40;39.10
49441;DHT22;35317;51.978;6.296;2023-06-14T13:19:55;28.30;38.60
49441;DHT22;35317;51.978;6.296;2023-06-14T13:24:56;28.10;38.40
49441;DHT22;35317;51.978;6.296;2023-06-14T13:29:57;28.00;38.50
49441;DHT22;35317;51.978;6.296;2023-06-14T13:34:58;28.20;38.60
49441;DHT22;35317;51.978;6.296;2023-06-14T13:39:59;28.30;39.20
49441;DHT22;35317;51.978;6.296;2023-06-14T13:45:00;28.60;39.40
49441;DHT22;35317;51.978;6.296;2023-06-14T13:50:00;28.70;39.30
49441;DHT22;35317;51.978;6.296;2023-06-14T13:55:02;28.80;39.20
49441;DHT22;35317;51.978;6.296;2023-06-14T14:00:03;29.00;39.30
49441;DHT22;35317;51.978;6.296;2023-06-14T14:05:04;29.00;38.90
49441;DHT22;35317;51.978;6.296;2023-06-14T14:10:06;29.10;38.60
49441;DHT22;35317;51.978;6.296;2023-06-14T14:15:08;29.20;38.90
49441;DHT22;35317;51.978;6.296;2023-06-14T14:20:13;29.30;38.80
49441;DHT22;35317;51.978;6.296;2023-06-14T14:25:16;29.30;39.00
49441;DHT22;35317;51.978;6.296;2023-06-14T14:30:17;29.40;38.10
49441;DHT22;35317;51.978;6.296;2023-06-14T14:35:19;29.50;37.70
49441;DHT22;35317;51.978;6.296;2023-06-14T14:40:20;29.70;37.50
49441;DHT22;35317;51.978;6.296;2023-06-14T14:45:21;29.70;37.90
49441;DHT22;35317;51.978;6.296;2023-06-14T14:50:22;29.60;37.70
49441;DHT22;35317;51.978;6.296;2023-06-14T14:55:23;29.40;38.00
49441;DHT22;35317;51.978;6.296;2023-06-14T15:00:24;29.50;38.10
49441;DHT22;35317;51.978;6.296;2023-06-14T15:05:25;29.70;37.80
49441;DHT22;35317;51.978;6.296;2023-06-14T15:10:26;29.50;37.30
49441;DHT22;35317;51.978;6.296;2023-06-14T15:15:27;29.20;37.70
49441;DHT22;35317;51.978;6.296;2023-06-14T15:20:28;29.20;37.90
49441;DHT22;35317;51.978;6.296;2023-06-14T15:25:29;29.40;38.10
49441;DHT22;35317;51.978;6.296;2023-06-14T15:30:30;29.60;38.00
49441;DHT22;35317;51.978;6.296;2023-06-14T15:35:31;29.50;38.00
49441;DHT22;35317;51.978;6.296;2023-06-14T15:40:32;29.50;37.60
49441;DHT22;35317;51.978;6.296;2023-06-14T15:45:33;29.30;37.20
49441;DHT22;35317;51.978;6.296;2023-06-14T15:50:33;29.00;37.40
49441;DHT22;35317;51.978;6.296;2023-06-14T15:55:34;28.80;37.80
49441;DHT22;35317;51.978;6.296;2023-06-14T16:00:35;29.00;37.90
49441;DHT22;35317;51.978;6.296;2023-06-14T16:05:36;29.10;37.50
49441;DHT22;35317;51.978;6.296;2023-06-14T16:10:53;28.80;37.60
49441;DHT22;35317;51.978;6.296;2023-06-14T16:15:54;28.90;37.70
49441;DHT22;35317;51.978;6.296;2023-06-14T16:20:55;28.90;37.60
49441;DHT22;35317;51.978;6.296;2023-06-14T16:25:57;28.90;37.70
49441;DHT22;35317;51.978;6.296;2023-06-14T16:30:58;28.70;37.90
49441;DHT22;35317;51.978;6.296;2023-06-14T16:35:58;28.50;38.50
49441;DHT22;35317;51.978;6.296;2023-06-14T16:40:59;28.40;39.10
49441;DHT22;35317;51.978;6.296;2023-06-14T16:46:00;28.30;39.20
49441;DHT22;35317;51.978;6.296;2023-06-14T16:51:01;28.30;39.40
49441;DHT22;35317;51.978;6.296;2023-06-14T16:56:02;28.20;39.50
49441;DHT22;35317;51.978;6.296;2023-06-14T17:01:03;28.00;39.80
49441;DHT22;35317;51.978;6.296;2023-06-14T17:06:04;27.60;40.20
49441;DHT22;35317;51.978;6.296;2023-06-14T17:11:06;27.30;40.70
49441;DHT22;35317;51.978;6.296;2023-06-14T17:16:07;27.20;41.00
49441;DHT22;35317;51.978;6.296;2023-06-14T17:21:08;27.10;41.50
49441;DHT22;35317;51.978;6.296;2023-06-14T17:26:09;26.80;42.00
49441;DHT22;35317;51.978;6.296;2023-06-14T17:31:10;26.60;42.40
49441;DHT22;35317;51.978;6.296;2023-06-14T17:36:11;26.40;42.70
49441;DHT22;35317;51.978;6.296;2023-06-14T17:41:12;26.30;42.90
49441;DHT22;35317;51.978;6.296;2023-06-14T17:46:15;26.20;43.00
49441;DHT22;35317;51.978;6.296;2023-06-14T17:51:16;26.00;43.10
49441;DHT22;35317;51.978;6.296;2023-06-14T17:56:19;25.80;43.60
49441;DHT22;35317;51.978;6.296;2023-06-14T18:01:20;25.80;43.60
49441;DHT22;35317;51.978;6.296;2023-06-14T18:06:21;25.80;44.00
49441;DHT22;35317;51.978;6.296;2023-06-14T18:11:22;25.60;44.10
49441;DHT22;35317;51.978;6.296;2023-06-14T18:16:25;25.60;44.30
49441;DHT22;35317;51.978;6.296;2023-06-14T18:21:26;25.50;44.30
49441;DHT22;35317;51.978;6.296;2023-06-14T18:26:27;25.40;44.30
49441;DHT22;35317;51.978;6.296;2023-06-14T18:31:28;25.40;44.50
49441;DHT22;35317;51.978;6.296;2023-06-14T18:36:29;25.30;44.70
49441;DHT22;35317;51.978;6.296;2023-06-14T18:41:31;25.20;44.80
49441;DHT22;35317;51.978;6.296;2023-06-14T18:46:32;25.20;45.10
49441;DHT22;35317;51.978;6.296;2023-06-14T18:51:33;25.10;45.30
49441;DHT22;35317;51.978;6.296;2023-06-14T18:56:34;25.00;45.50
49441;DHT22;35317;51.978;6.296;2023-06-14T19:01:36;24.90;45.80
49441;DHT22;35317;51.978;6.296;2023-06-14T19:06:37;24.70;46.00
49441;DHT22;35317;51.978;6.296;2023-06-14T19:11:39;24.60;46.30
49441;DHT22;35317;51.978;6.296;2023-06-14T19:16:41;24.50;46.70
49441;DHT22;35317;51.978;6.296;2023-06-14T19:21:42;24.30;47.00
49441;DHT22;35317;51.978;6.296;2023-06-14T19:26:43;24.20;47.30
49441;DHT22;35317;51.978;6.296;2023-06-14T19:31:44;24.00;47.50
49441;DHT22;35317;51.978;6.296;2023-06-14T19:36:45;23.80;47.90
49441;DHT22;35317;51.978;6.296;2023-06-14T19:41:46;23.50;48.30
49441;DHT22;35317;51.978;6.296;2023-06-14T19:46:47;23.30;48.70
49441;DHT22;35317;51.978;6.296;2023-06-14T19:51:47;23.10;49.10
49441;DHT22;35317;51.978;6.296;2023-06-14T19:56:48;22.90;49.50
49441;DHT22;35317;51.978;6.296;2023-06-14T20:01:49;22.60;49.90
49441;DHT22;35317;51.978;6.296;2023-06-14T20:06:50;22.40;50.40
49441;DHT22;35317;51.978;6.296;2023-06-14T20:11:59;22.20;50.90
49441;DHT22;35317;51.978;6.296;2023-06-14T20:17:00;22.00;51.50
49441;DHT22;35317;51.978;6.296;2023-06-14T20:22:01;21.70;52.00
49441;DHT22;35317;51.978;6.296;2023-06-14T20:27:02;21.40;52.60
49441;DHT22;35317;51.978;6.296;2023-06-14T20:32:04;21.20;53.10
49441;DHT22;35317;51.978;6.296;2023-06-14T20:37:05;21.00;53.70
49441;DHT22;35317;51.978;6.296;2023-06-14T20:42:06;20.80;54.10
49441;DHT22;35317;51.978;6.296;2023-06-14T20:47:09;20.60;54.60
49441;DHT22;35317;51.978;6.296;2023-06-14T20:52:13;20.40;55.00
49441;DHT22;35317;51.978;6.296;2023-06-14T20:57:14;20.30;55.50
49441;DHT22;35317;51.978;6.296;2023-06-14T21:02:17;20.10;55.90
49441;DHT22;35317;51.978;6.296;2023-06-14T21:07:18;20.00;56.40
49441;DHT22;35317;51.978;6.296;2023-06-14T21:12:19;19.80;57.00
49441;DHT22;35317;51.978;6.296;2023-06-14T21:17:20;19.70;57.40
49441;DHT22;35317;51.978;6.296;2023-06-14T21:22:21;19.60;57.90
49441;DHT22;35317;51.978;6.296;2023-06-14T21:27:22;19.40;58.20
49441;DHT22;35317;51.978;6.296;2023-06-14T21:32:23;19.30;58.60
49441;DHT22;35317;51.978;6.296;2023-06-14T21:37:23;19.20;59.00
49441;DHT22;35317;51.978;6.296;2023-06-14T21:42:24;19.10;59.40
49441;DHT22;35317;51.978;6.296;2023-06-14T21:47:25;19.00;59.80
49441;DHT22;35317;51.978;6.296;2023-06-14T21:52:26;18.90;60.20
49441;DHT22;35317;51.978;6.296;2023-06-14T21:57:27;18.80;60.70
49441;DHT22;35317;51.978;6.296;2023-06-14T22:02:27;18.70;61.00
49441;DHT22;35317;51.978;6.296;2023-06-14T22:07:28;18.60;61.20
49441;DHT22;35317;51.978;6.296;2023-06-14T22:12:31;18.50;61.60
49441;DHT22;35317;51.978;6.296;2023-06-14T22:17:32;18.40;62.00
49441;DHT22;35317;51.978;6.296;2023-06-14T22:22:33;18.30;62.40
49441;DHT22;35317;51.978;6.296;2023-06-14T22:27:38;18.20;62.90
49441;DHT22;35317;51.978;6.296;2023-06-14T22:32:46;18.10;63.50
49441;DHT22;35317;51.978;6.296;2023-06-14T22:37:49;17.90;64.00
49441;DHT22;35317;51.978;6.296;2023-06-14T22:42:50;17.90;64.20
49441;DHT22;35317;51.978;6.296;2023-06-14T22:47:53;17.80;64.10
49441;DHT22;35317;51.978;6.296;2023-06-14T22:52:54;17.60;64.50
49441;DHT22;35317;51.978;6.296;2023-06-14T22:57:55;17.60;65.00
49441;DHT22;35317;51.978;6.296;2023-06-14T23:02:55;17.50;65.30
49441;DHT22;35317;51.978;6.296;2023-06-14T23:07:57;17.40;65.60
49441;DHT22;35317;51.978;6.296;2023-06-14T23:12:58;17.30;66.00
49441;DHT22;35317;51.978;6.296;2023-06-14T23:17:59;17.20;66.40
49441;DHT22;35317;51.978;6.296;2023-06-14T23:23:00;17.20;66.90
49441;DHT22;35317;51.978;6.296;2023-06-14T23:28:06;17.10;67.20
49441;DHT22;35317;51.978;6.296;2023-06-14T23:33:08;17.00;67.50
49441;DHT22;35317;51.978;6.296;2023-06-14T23:38:09;16.90;67.70
49441;DHT22;35317;51.978;6.296;2023-06-14T23:43:12;16.90;68.20
49441;DHT22;35317;51.978;6.296;2023-06-14T23:48:14;16.80;68.40
49441;DHT22;35317;51.978;6.296;2023-06-14T23:53:16;16.70;68.40
49441;DHT22;35317;51.978;6.296;2023-06-14T23:58:17;16.70;68.70
